createdAt,value
2023-05-21T00:00:00.499Z,19.90
2023-05-21T00:01:00.492Z,20.00
2023-05-21T00:02:00.453Z,20.00
2023-05-21T00:03:00.530Z,19.70
2023-05-21T00:04:00.571Z,19.60
2023-05-21T00:05:00.473Z,21.30
2023-05-21T00:06:00.565Z,21.30
2023-05-21T00:07:00.453Z,19.30
2023-05-21T00:08:00.383Z,20.40
2023-05-21T00:09:00.400Z,19.80
2023-05-21T00:10:00.391Z,19.30
2023-05-21T00:11:00.378Z,21.70
2023-05-21T00:12:00.351Z,20.10
2023-05-21T00:13:00.346Z,19.80
2023-05-21T00:14:00.345Z,19.70
2023-05-21T00:15:00.363Z,20.90
2023-05-21T00:16:00.324Z,19.00
2023-05-21T00:17:00.316Z,19.90
2023-05-21T00:18:00.314Z,20.30
2023-05-21T00:19:00.422Z,19.60
2023-05-21T00:20:00.397Z,19.90
2023-05-21T00:21:00.264Z,20.20
2023-05-21T00:22:00.241Z,20.90
2023-05-21T00:23:00.235Z,20.30
2023-05-21T00:24:00.284Z,19.40
2023-05-21T00:25:00.221Z,20.50
2023-05-21T00:26:00.209Z,20.50
2023-05-21T00:27:00.208Z,20.60
2023-05-21T00:28:00.200Z,19.70
2023-05-21T00:29:00.202Z,20.60
2023-05-21T00:30:00.211Z,20.20
2023-05-21T00:31:00.154Z,19.40
2023-05-21T00:32:00.263Z,22.00
2023-05-21T00:33:00.233Z,19.00
2023-05-21T00:34:00.149Z,20.60
2023-05-21T00:35:00.169Z,19.10
2023-05-21T00:36:00.111Z,20.40
2023-05-21T00:37:00.118Z,19.70
2023-05-21T00:38:00.137Z,22.00
2023-05-21T00:39:00.130Z,19.80
2023-05-21T00:40:00.068Z,21.30
2023-05-21T00:41:00.063Z,21.40
2023-05-21T00:42:00.029Z,21.20
2023-05-21T00:43:00.151Z,21.40
2023-05-21T00:44:00.059Z,21.40
2023-05-21T00:45:00.027Z,22.10
2023-05-21T00:46:00.006Z,19.80
2023-05-21T00:47:00.004Z,21.20
2023-05-21T00:48:00.034Z,21.80
2023-05-21T00:48:59.967Z,21.90
2023-05-21T00:49:59.945Z,21.40
2023-05-21T00:50:59.983Z,21.90
2023-05-21T00:51:59.931Z,21.00
2023-05-21T00:52:59.976Z,21.80
2023-05-21T00:53:59.922Z,21.80
2023-05-21T00:54:59.915Z,21.60
2023-05-21T00:55:59.881Z,20.60
2023-05-21T00:56:59.910Z,21.90
2023-05-21T00:57:59.867Z,21.50
2023-05-21T00:58:59.930Z,21.10
2023-05-21T00:59:59.894Z,20.20
2023-05-21T01:00:59.878Z,20.80
2023-05-21T01:01:59.937Z,21.40
2023-05-21T01:02:59.928Z,21.70
2023-05-21T01:03:59.896Z,21.90
2023-05-21T01:04:59.819Z,23.10
2023-05-21T01:05:59.862Z,25.10
2023-05-21T01:06:59.775Z,23.70
2023-05-21T01:07:59.759Z,22.40
2023-05-21T01:08:59.766Z,22.50
2023-05-21T01:09:59.730Z,24.90
2023-05-21T01:10:59.765Z,22.60
2023-05-21T01:11:59.708Z,23.30
2023-05-21T01:12:59.720Z,22.90
2023-05-21T01:13:59.708Z,22.10
2023-05-21T01:14:59.688Z,22.70
2023-05-21T01:15:59.751Z,22.40
2023-05-21T01:16:59.723Z,22.30
2023-05-21T01:17:59.696Z,23.70
2023-05-21T01:18:59.933Z,23.70
2023-05-21T01:19:59.658Z,22.80
2023-05-21T01:20:59.653Z,24.20
2023-05-21T01:21:59.613Z,23.70
2023-05-21T01:22:59.603Z,24.10
2023-05-21T01:23:59.586Z,23.90
2023-05-21T01:24:59.622Z,22.60
2023-05-21T01:25:59.558Z,24.40
2023-05-21T01:26:59.560Z,25.20
2023-05-21T01:27:59.537Z,25.50
2023-05-21T01:28:59.552Z,25.10
2023-05-21T01:29:59.566Z,24.90
2023-05-21T01:30:59.520Z,24.70
2023-05-21T01:31:59.521Z,24.00
2023-05-21T01:32:59.569Z,24.90
2023-05-21T01:33:59.584Z,23.70
2023-05-21T01:34:59.517Z,24.30
2023-05-21T01:35:59.452Z,24.00
2023-05-21T01:36:59.467Z,25.70
2023-05-21T01:37:59.446Z,23.80
2023-05-21T01:38:59.508Z,24.00
2023-05-21T01:39:59.415Z,24.90
2023-05-21T01:40:59.425Z,24.70
2023-05-21T01:41:59.401Z,24.70
2023-05-21T01:42:59.382Z,26.40
2023-05-21T01:43:59.408Z,23.60
2023-05-21T01:44:59.388Z,25.60
2023-05-21T01:45:59.370Z,26.20
2023-05-21T01:46:59.354Z,23.80
2023-05-21T01:47:59.425Z,24.90
2023-05-21T01:48:59.358Z,26.40
2023-05-21T01:49:59.327Z,25.40
2023-05-21T01:50:59.331Z,23.60
2023-05-21T01:51:59.306Z,24.20
2023-05-21T01:52:59.331Z,24.00
2023-05-21T01:53:59.289Z,24.60
2023-05-21T01:54:59.266Z,24.80
2023-05-21T01:55:59.260Z,25.60
2023-05-21T01:56:59.259Z,25.50
2023-05-21T01:58:01.234Z,24.20
2023-05-21T01:58:59.242Z,24.90
2023-05-21T01:59:59.212Z,25.30
2023-05-21T02:00:59.210Z,26.30
2023-05-21T02:01:59.251Z,24.20
2023-05-21T02:02:59.295Z,27.20
2023-05-21T02:03:59.326Z,27.00
2023-05-21T02:04:59.153Z,25.30
2023-05-21T02:05:59.211Z,26.00
2023-05-21T02:06:59.167Z,25.00
2023-05-21T02:07:59.120Z,28.00
2023-05-21T02:08:59.138Z,25.90
2023-05-21T02:09:59.113Z,25.70
2023-05-21T02:10:59.118Z,24.50
2023-05-21T02:11:59.117Z,26.60
2023-05-21T02:12:59.083Z,25.30
2023-05-21T02:13:59.082Z,26.90
2023-05-21T02:14:59.056Z,24.30
2023-05-21T02:15:59.085Z,25.30
2023-05-21T02:16:59.068Z,25.30
2023-05-21T02:17:59.029Z,26.10
2023-05-21T02:18:59.054Z,25.40
2023-05-21T02:19:59.036Z,26.90
2023-05-21T02:20:59.088Z,27.10
2023-05-21T02:21:59.025Z,26.10
2023-05-21T02:22:59.006Z,25.90
2023-05-21T02:23:58.998Z,26.70
2023-05-21T02:24:58.996Z,27.30
2023-05-21T02:25:58.984Z,25.40
2023-05-21T02:26:58.968Z,24.80
2023-05-21T02:27:58.971Z,27.40
2023-05-21T02:28:58.934Z,26.60
2023-05-21T02:29:58.951Z,25.40
2023-05-21T02:30:58.904Z,25.70
2023-05-21T02:31:58.917Z,24.40
2023-05-21T02:32:59.045Z,27.40
2023-05-21T02:33:58.924Z,25.30
2023-05-21T02:34:58.892Z,27.40
2023-05-21T02:35:58.846Z,27.10
2023-05-21T02:36:58.842Z,25.40
2023-05-21T02:37:58.814Z,27.60
2023-05-21T02:38:58.830Z,26.30
2023-05-21T02:39:58.826Z,25.00
2023-05-21T02:40:58.790Z,26.70
2023-05-21T02:41:58.740Z,24.90
2023-05-21T02:42:58.729Z,26.80
2023-05-21T02:43:58.730Z,25.60
2023-05-21T02:44:58.727Z,29.40
2023-05-21T02:45:58.779Z,27.00
2023-05-21T02:46:58.704Z,25.10
2023-05-21T02:47:58.728Z,25.50
2023-05-21T02:48:58.681Z,30.50
2023-05-21T02:49:58.647Z,28.00
2023-05-21T02:50:58.636Z,31.10
2023-05-21T02:51:58.632Z,29.60
2023-05-21T02:52:58.637Z,30.30
2023-05-21T02:53:58.639Z,31.40
2023-05-21T02:54:58.631Z,30.60
2023-05-21T02:55:58.575Z,28.30
2023-05-21T02:56:58.574Z,27.90
2023-05-21T02:57:58.583Z,30.10
2023-05-21T02:58:58.593Z,31.40
2023-05-21T02:59:58.540Z,27.50
2023-05-21T03:00:58.624Z,26.70
2023-05-21T03:01:58.510Z,31.40
2023-05-21T03:02:58.569Z,30.20
2023-05-21T03:03:58.522Z,31.60
2023-05-21T03:04:58.533Z,29.90
2023-05-21T03:05:58.489Z,31.30
2023-05-21T03:06:58.467Z,36.30
2023-05-21T03:07:58.487Z,33.90
2023-05-21T03:08:58.487Z,33.70
2023-05-21T03:09:58.431Z,34.40
2023-05-21T03:10:58.423Z,33.50
2023-05-21T03:11:58.453Z,36.30
2023-05-21T03:12:58.454Z,36.40
2023-05-21T03:13:58.392Z,32.20
2023-05-21T03:14:58.409Z,29.60
2023-05-21T03:15:58.358Z,31.00
2023-05-21T03:16:58.460Z,35.50
2023-05-21T03:17:58.419Z,33.10
2023-05-21T03:18:58.380Z,31.30
2023-05-21T03:19:58.359Z,30.30
2023-05-21T03:20:58.355Z,28.60
2023-05-21T03:21:58.304Z,33.80
2023-05-21T03:22:58.297Z,28.40
2023-05-21T03:23:58.294Z,36.70
2023-05-21T03:24:58.339Z,38.30
2023-05-21T03:25:58.257Z,33.20
2023-05-21T03:26:58.279Z,36.30
2023-05-21T03:27:58.274Z,35.00
2023-05-21T03:28:58.249Z,38.40
2023-05-21T03:29:58.266Z,36.30
2023-05-21T03:30:58.250Z,33.90
2023-05-21T03:31:58.338Z,35.50
2023-05-21T03:32:58.246Z,39.60
2023-05-21T03:33:58.311Z,36.10
2023-05-21T03:34:58.173Z,35.00
2023-05-21T03:35:58.193Z,36.90
2023-05-21T03:36:58.163Z,37.90
2023-05-21T03:37:58.156Z,35.50
2023-05-21T03:38:58.144Z,33.30
2023-05-21T03:39:58.147Z,36.70
2023-05-21T03:40:58.159Z,36.50
2023-05-21T03:41:58.118Z,31.30
2023-05-21T03:42:58.088Z,35.70
2023-05-21T03:43:58.091Z,33.10
2023-05-21T03:44:58.126Z,34.10
2023-05-21T03:45:58.097Z,29.50
2023-05-21T03:46:58.049Z,30.70
2023-05-21T03:47:58.080Z,30.40
2023-05-21T03:48:58.118Z,27.70
2023-05-21T03:49:58.061Z,29.50
2023-05-21T03:50:58.012Z,30.20
2023-05-21T03:51:58.043Z,31.10
2023-05-21T03:52:58.027Z,28.70
2023-05-21T03:53:58.009Z,31.90
2023-05-21T03:54:57.993Z,28.30
2023-05-21T03:55:57.960Z,27.30
2023-05-21T03:56:57.944Z,26.50
2023-05-21T03:57:57.940Z,28.00
2023-05-21T03:58:57.945Z,30.80
2023-05-21T03:59:57.929Z,27.00
2023-05-21T04:00:57.913Z,28.50
2023-05-21T04:01:57.929Z,29.40
2023-05-21T04:02:57.998Z,28.70
2023-05-21T04:03:58.101Z,28.10
2023-05-21T04:04:57.911Z,28.50
2023-05-21T04:05:57.890Z,28.40
2023-05-21T04:06:57.861Z,27.20
2023-05-21T04:07:57.894Z,27.40
2023-05-21T04:08:57.825Z,27.80
2023-05-21T04:09:57.834Z,25.80
2023-05-21T04:10:57.807Z,26.90
2023-05-21T04:11:57.818Z,29.60
2023-05-21T04:12:57.827Z,27.90
2023-05-21T04:13:57.797Z,27.70
2023-05-21T04:14:57.764Z,28.70
2023-05-21T04:15:57.809Z,26.70
2023-05-21T04:16:57.842Z,27.40
2023-05-21T04:17:57.818Z,24.80
2023-05-21T04:18:57.765Z,24.60
2023-05-21T04:19:57.702Z,25.70
2023-05-21T04:20:57.738Z,25.90
2023-05-21T04:21:57.708Z,25.40
2023-05-21T04:22:57.704Z,26.10
2023-05-21T04:23:57.702Z,25.40
2023-05-21T04:24:57.650Z,26.80
2023-05-21T04:25:57.662Z,25.20
2023-05-21T04:26:57.680Z,24.90
2023-05-21T04:27:57.635Z,26.60
2023-05-21T04:28:57.627Z,24.20
2023-05-21T04:29:57.639Z,26.90
2023-05-21T04:30:57.745Z,23.60
2023-05-21T04:31:57.583Z,22.10
2023-05-21T04:32:57.647Z,23.90
2023-05-21T04:33:57.599Z,25.60
2023-05-21T04:34:57.551Z,23.20
2023-05-21T04:35:57.591Z,24.50
2023-05-21T04:36:57.543Z,24.40
2023-05-21T04:37:57.585Z,24.90
2023-05-21T04:38:57.516Z,23.70
2023-05-21T04:39:57.504Z,23.10
2023-05-21T04:40:57.521Z,24.30
2023-05-21T04:41:57.491Z,25.00
2023-05-21T04:42:57.461Z,22.50
2023-05-21T04:43:57.480Z,23.80
2023-05-21T04:44:57.492Z,24.90
2023-05-21T04:45:57.539Z,23.90
2023-05-21T04:46:57.516Z,23.20
2023-05-21T04:47:57.491Z,23.60
2023-05-21T04:48:57.405Z,24.70
2023-05-21T04:49:57.462Z,23.00
2023-05-21T04:50:57.411Z,21.80
2023-05-21T04:51:57.378Z,22.50
2023-05-21T04:52:57.370Z,22.20
2023-05-21T04:53:57.434Z,23.90
2023-05-21T04:54:57.417Z,21.80
2023-05-21T04:55:57.336Z,22.10
2023-05-21T04:56:57.310Z,21.90
2023-05-21T04:57:57.313Z,22.30
2023-05-21T04:58:57.326Z,21.20
2023-05-21T04:59:57.318Z,21.80
2023-05-21T05:00:57.278Z,20.70
2023-05-21T05:01:57.311Z,21.20
2023-05-21T05:02:57.338Z,20.50
2023-05-21T05:03:57.408Z,22.50
2023-05-21T05:04:57.246Z,21.40
2023-05-21T05:05:57.238Z,21.80
2023-05-21T05:06:57.250Z,20.30
2023-05-21T05:07:57.222Z,23.50
2023-05-21T05:08:57.256Z,21.50
2023-05-21T05:09:57.185Z,21.30
2023-05-21T05:10:57.193Z,21.50
2023-05-21T05:11:57.175Z,21.60
2023-05-21T05:12:57.201Z,21.20
2023-05-21T05:13:57.191Z,23.70
2023-05-21T05:14:57.150Z,21.90
2023-05-21T05:15:57.131Z,23.60
2023-05-21T05:16:57.127Z,21.00
2023-05-21T05:17:57.182Z,20.80
2023-05-21T05:18:57.231Z,21.10
2023-05-21T05:19:57.081Z,21.90
2023-05-21T05:20:57.072Z,21.50
2023-05-21T05:21:57.085Z,21.20
2023-05-21T05:22:57.137Z,21.30
2023-05-21T05:23:57.064Z,20.20
2023-05-21T05:24:57.167Z,20.70
2023-05-21T05:25:57.022Z,21.20
2023-05-21T05:26:57.065Z,20.00
2023-05-21T05:27:57.038Z,20.00
2023-05-21T05:28:57.020Z,20.20
2023-05-21T05:29:57.003Z,20.70
2023-05-21T05:30:57.005Z,21.00
2023-05-21T05:31:56.979Z,20.70
2023-05-21T05:32:56.977Z,21.50
2023-05-21T05:33:56.945Z,19.40
2023-05-21T05:34:56.935Z,21.30
2023-05-21T05:35:56.915Z,20.60
2023-05-21T05:36:56.930Z,21.60
2023-05-21T05:37:56.895Z,21.10
2023-05-21T05:38:56.899Z,21.10
2023-05-21T05:39:56.878Z,20.70
2023-05-21T05:40:56.885Z,20.20
2023-05-21T05:41:56.920Z,21.40
2023-05-21T05:42:56.831Z,19.90
2023-05-21T05:43:56.844Z,20.60
2023-05-21T05:44:56.846Z,19.50
2023-05-21T05:45:57.056Z,22.10
2023-05-21T05:46:56.804Z,19.90
2023-05-21T05:47:56.869Z,19.90
2023-05-21T05:48:56.799Z,19.60
2023-05-21T05:49:56.816Z,18.60
2023-05-21T05:50:56.782Z,20.10
2023-05-21T05:51:56.761Z,19.50
2023-05-21T05:52:56.733Z,20.70
2023-05-21T05:53:56.774Z,21.30
2023-05-21T05:54:56.756Z,19.10
2023-05-21T05:55:56.723Z,19.50
2023-05-21T05:56:56.718Z,19.20
2023-05-21T05:57:56.686Z,19.10
2023-05-21T05:58:56.705Z,18.60
2023-05-21T05:59:56.712Z,20.80
2023-05-21T06:00:56.747Z,21.40
2023-05-21T06:01:56.648Z,20.00
2023-05-21T06:02:56.772Z,19.50
2023-05-21T06:03:56.715Z,21.20
2023-05-21T06:04:56.634Z,19.00
2023-05-21T06:05:56.675Z,19.10
2023-05-21T06:06:56.650Z,19.70
2023-05-21T06:07:56.604Z,20.10
2023-05-21T06:08:56.581Z,19.00
2023-05-21T06:09:56.574Z,19.40
2023-05-21T06:10:56.588Z,20.80
2023-05-21T06:11:56.544Z,19.60
2023-05-21T06:12:56.549Z,20.10
2023-05-21T06:13:56.601Z,20.20
2023-05-21T06:14:56.550Z,19.70
2023-05-21T06:15:56.526Z,20.40
2023-05-21T06:16:56.500Z,20.00
2023-05-21T06:17:56.573Z,21.70
2023-05-21T06:18:56.601Z,21.00
2023-05-21T06:19:56.455Z,20.50
2023-05-21T06:20:56.480Z,20.00
2023-05-21T06:21:56.449Z,21.00
2023-05-21T06:22:56.443Z,19.50
2023-05-21T06:23:56.570Z,20.30
2023-05-21T06:24:56.413Z,21.40
2023-05-21T06:25:56.439Z,20.00
2023-05-21T06:26:56.380Z,20.90
2023-05-21T06:27:56.409Z,19.40
2023-05-21T06:28:56.382Z,22.60
2023-05-21T06:29:56.359Z,20.30
2023-05-21T06:30:56.352Z,21.30
2023-05-21T06:31:56.350Z,21.10
2023-05-21T06:32:56.462Z,21.10
2023-05-21T06:33:56.432Z,20.60
2023-05-21T06:34:56.308Z,19.70
2023-05-21T06:35:56.315Z,21.60
2023-05-21T06:36:56.321Z,20.30
2023-05-21T06:37:56.317Z,20.60
2023-05-21T06:38:56.266Z,21.50
2023-05-21T06:39:56.267Z,20.80
2023-05-21T06:40:56.240Z,21.30
2023-05-21T06:41:56.254Z,20.90
2023-05-21T06:42:56.220Z,21.90
2023-05-21T06:43:56.224Z,23.10
2023-05-21T06:44:56.189Z,20.50
2023-05-21T06:45:56.220Z,20.80
2023-05-21T06:46:56.220Z,22.60
2023-05-21T06:47:56.229Z,21.10
2023-05-21T06:48:56.183Z,21.10
2023-05-21T06:49:56.146Z,21.30
2023-05-21T06:50:56.164Z,21.60
2023-05-21T06:51:56.161Z,20.80
2023-05-21T06:52:56.109Z,20.10
2023-05-21T06:53:56.115Z,20.40
2023-05-21T06:54:56.092Z,20.40
2023-05-21T06:55:56.154Z,21.10
2023-05-21T06:56:56.077Z,21.80
2023-05-21T06:57:56.072Z,20.50
2023-05-21T06:58:56.092Z,20.20
2023-05-21T06:59:56.052Z,22.40
2023-05-21T07:00:56.131Z,22.50
2023-05-21T07:01:56.064Z,21.20
2023-05-21T07:02:56.064Z,22.60
2023-05-21T07:03:56.043Z,20.20
2023-05-21T07:04:56.089Z,20.70
2023-05-21T07:05:56.004Z,20.00
2023-05-21T07:06:55.964Z,21.00
2023-05-21T07:07:55.997Z,21.80
2023-05-21T07:08:55.960Z,21.10
2023-05-21T07:09:55.957Z,19.80
2023-05-21T07:10:55.966Z,19.40
2023-05-21T07:11:55.915Z,19.80
2023-05-21T07:12:55.918Z,20.60
2023-05-21T07:13:55.903Z,19.50
2023-05-21T07:14:58.132Z,19.80
2023-05-21T07:15:55.876Z,19.40
2023-05-21T07:16:55.880Z,21.70
2023-05-21T07:17:55.926Z,19.70
2023-05-21T07:18:55.905Z,20.30
2023-05-21T07:19:55.877Z,19.80
2023-05-21T07:20:55.849Z,21.50
2023-05-21T07:21:55.842Z,21.20
2023-05-21T07:22:55.797Z,20.90
2023-05-21T07:23:55.825Z,21.70
2023-05-21T07:24:55.780Z,19.10
2023-05-21T07:25:56.810Z,19.70
2023-05-21T07:26:55.758Z,20.00
2023-05-21T07:27:55.756Z,20.20
2023-05-21T07:28:55.781Z,20.40
2023-05-21T07:29:55.733Z,19.80
2023-05-21T07:30:55.720Z,19.70
2023-05-21T07:31:55.749Z,19.90
2023-05-21T07:32:55.764Z,19.60
2023-05-21T07:33:55.710Z,19.40
2023-05-21T07:34:55.729Z,19.80
2023-05-21T07:35:55.673Z,19.70
2023-05-21T07:36:55.646Z,21.70
2023-05-21T07:37:55.681Z,20.40
2023-05-21T07:38:55.640Z,19.60
2023-05-21T07:39:55.623Z,19.90
2023-05-21T07:40:55.685Z,19.00
2023-05-21T07:41:55.608Z,20.60
2023-05-21T07:42:55.589Z,19.20
2023-05-21T07:43:55.597Z,19.00
2023-05-21T07:44:55.603Z,21.90
2023-05-21T07:45:55.602Z,19.80
2023-05-21T07:46:55.553Z,20.20
2023-05-21T07:47:55.587Z,19.50
2023-05-21T07:48:55.540Z,18.80
2023-05-21T07:49:55.522Z,21.50
2023-05-21T07:50:55.574Z,20.00
2023-05-21T07:51:55.526Z,19.90
2023-05-21T07:52:55.627Z,19.70
2023-05-21T07:53:55.597Z,19.00
2023-05-21T07:54:55.475Z,18.70
2023-05-21T07:55:55.507Z,19.20
2023-05-21T07:56:55.511Z,18.50
2023-05-21T07:57:55.435Z,19.30
2023-05-21T07:58:55.451Z,18.10
2023-05-21T07:59:55.421Z,19.50
2023-05-21T08:00:55.480Z,19.40
2023-05-21T08:01:55.433Z,19.70
2023-05-21T08:02:55.479Z,20.50
2023-05-21T08:03:55.532Z,17.70
2023-05-21T08:04:55.424Z,18.00
2023-05-21T08:05:55.370Z,17.80
2023-05-21T08:06:55.371Z,18.50
2023-05-21T08:07:55.340Z,18.70
2023-05-21T08:08:55.342Z,19.20
2023-05-21T08:09:55.317Z,19.00
2023-05-21T08:10:55.350Z,18.20
2023-05-21T08:11:55.300Z,20.10
2023-05-21T08:12:55.282Z,17.90
2023-05-21T08:13:55.332Z,21.00
2023-05-21T08:14:55.254Z,21.10
2023-05-21T08:15:55.296Z,18.90
2023-05-21T08:16:55.236Z,19.70
2023-05-21T08:17:55.271Z,19.00
2023-05-21T08:18:55.258Z,20.70
2023-05-21T08:19:55.264Z,19.10
2023-05-21T08:20:55.218Z,17.80
2023-05-21T08:21:55.190Z,18.70
2023-05-21T08:22:55.171Z,18.40
2023-05-21T08:23:55.416Z,18.50
2023-05-21T08:24:56.194Z,19.20
2023-05-21T08:25:55.153Z,18.30
2023-05-21T08:26:55.132Z,19.10
2023-05-21T08:27:55.148Z,19.50
2023-05-21T08:28:55.133Z,20.20
2023-05-21T08:29:55.117Z,19.70
2023-05-21T08:30:55.081Z,19.10
2023-05-21T08:31:55.136Z,20.40
2023-05-21T08:32:55.331Z,20.00
2023-05-21T08:33:55.083Z,19.40
2023-05-21T08:34:55.076Z,18.90
2023-05-21T08:35:55.044Z,19.10
2023-05-21T08:36:55.034Z,20.10
2023-05-21T08:37:55.027Z,18.60
2023-05-21T08:38:55.059Z,18.40
2023-05-21T08:39:55.025Z,19.50
2023-05-21T08:40:55.051Z,19.50
2023-05-21T08:41:54.996Z,19.00
2023-05-21T08:42:55.051Z,17.40
2023-05-21T08:43:55.088Z,18.30
2023-05-21T08:44:54.948Z,18.00
2023-05-21T08:45:55.006Z,18.50
2023-05-21T08:46:54.927Z,18.40
2023-05-21T08:47:54.994Z,18.70
2023-05-21T08:48:55.046Z,17.60
2023-05-21T08:49:54.879Z,18.80
2023-05-21T08:50:54.991Z,19.00
2023-05-21T08:51:54.895Z,18.20
2023-05-21T08:52:54.910Z,18.80
2023-05-21T08:53:54.867Z,18.00
2023-05-21T08:54:54.841Z,18.40
2023-05-21T08:55:54.825Z,17.90
2023-05-21T08:56:54.853Z,19.60
2023-05-21T08:57:54.842Z,20.10
2023-05-21T08:58:54.815Z,17.70
2023-05-21T08:59:54.820Z,19.20
2023-05-21T09:00:54.978Z,17.80
2023-05-21T09:01:54.948Z,17.30
2023-05-21T09:02:54.962Z,18.80
2023-05-21T09:04:01.762Z,17.80
2023-05-21T09:04:54.877Z,16.90
2023-05-21T09:05:54.781Z,17.60
2023-05-21T09:06:54.773Z,17.60
2023-05-21T09:07:54.705Z,17.30
2023-05-21T09:08:54.750Z,17.80
2023-05-21T09:09:54.695Z,17.20
2023-05-21T09:10:54.683Z,17.80
2023-05-21T09:11:54.684Z,19.00
2023-05-21T09:12:54.681Z,17.70
2023-05-21T09:13:54.655Z,16.50
2023-05-21T09:14:54.648Z,16.80
2023-05-21T09:15:54.660Z,17.70
2023-05-21T09:16:54.710Z,19.30
2023-05-21T09:17:55.057Z,17.90
2023-05-21T09:18:54.672Z,18.00
2023-05-21T09:19:54.587Z,18.10
2023-05-21T09:20:54.600Z,17.80
2023-05-21T09:21:54.605Z,18.90
2023-05-21T09:22:54.581Z,17.90
2023-05-21T09:23:54.583Z,16.70
2023-05-21T09:24:54.539Z,16.60
2023-05-21T09:25:54.557Z,16.70
2023-05-21T09:26:54.528Z,17.40
2023-05-21T09:27:54.529Z,16.80
2023-05-21T09:28:54.525Z,16.40
2023-05-21T09:29:54.516Z,16.70
2023-05-21T09:30:54.592Z,17.70
2023-05-21T09:31:54.505Z,17.70
2023-05-21T09:32:54.512Z,16.40
2023-05-21T09:33:54.459Z,16.70
2023-05-21T09:34:54.481Z,18.20
2023-05-21T09:35:54.448Z,16.60
2023-05-21T09:36:54.489Z,16.40
2023-05-21T09:37:54.509Z,16.20
2023-05-21T09:38:54.447Z,17.50
2023-05-21T09:39:54.444Z,17.60
2023-05-21T09:40:54.392Z,16.60
2023-05-21T09:41:54.459Z,18.60
2023-05-21T09:42:54.382Z,17.10
2023-05-21T09:43:54.390Z,17.80
2023-05-21T09:44:54.405Z,17.60
2023-05-21T09:45:54.392Z,17.30
2023-05-21T09:46:54.350Z,16.90
2023-05-21T09:47:54.352Z,18.30
2023-05-21T09:48:54.333Z,16.70
2023-05-21T09:49:54.351Z,16.20
2023-05-21T09:50:54.300Z,17.10
2023-05-21T09:51:54.291Z,17.20
2023-05-21T09:52:54.264Z,16.70
2023-05-21T09:53:54.312Z,17.30
2023-05-21T09:54:54.262Z,17.50
2023-05-21T09:55:54.248Z,17.40
2023-05-21T09:56:54.281Z,19.20
2023-05-21T09:57:54.264Z,17.80
2023-05-21T09:58:54.252Z,18.70
2023-05-21T09:59:54.211Z,17.70
2023-05-21T10:00:54.199Z,17.80
2023-05-21T10:01:54.223Z,16.50
2023-05-21T10:02:54.285Z,16.50
2023-05-21T10:03:54.199Z,16.90
2023-05-21T10:04:54.237Z,16.80
2023-05-21T10:05:54.145Z,17.10
2023-05-21T10:06:54.161Z,16.40
2023-05-21T10:07:54.163Z,17.00
2023-05-21T10:08:54.132Z,18.20
2023-05-21T10:09:54.186Z,17.00
2023-05-21T10:10:54.091Z,16.10
2023-05-21T10:11:54.112Z,16.50
2023-05-21T10:12:54.089Z,16.70
2023-05-21T10:13:54.081Z,16.40
2023-05-21T10:14:54.049Z,16.80
2023-05-21T10:15:54.072Z,16.50
2023-05-21T10:16:54.223Z,15.90
2023-05-21T10:17:54.199Z,16.80
2023-05-21T10:18:54.067Z,16.40
2023-05-21T10:19:54.010Z,16.10
2023-05-21T10:20:54.002Z,16.70
2023-05-21T10:21:54.010Z,18.10
2023-05-21T10:22:53.975Z,16.60
2023-05-21T10:23:53.983Z,16.10
2023-05-21T10:24:53.966Z,16.80
2023-05-21T10:25:54.105Z,16.30
2023-05-21T10:26:53.997Z,16.50
2023-05-21T10:27:53.920Z,15.90
2023-05-21T10:28:53.939Z,16.20
2023-05-21T10:29:53.919Z,16.30
2023-05-21T10:30:54.064Z,16.10
2023-05-21T10:31:53.942Z,15.80
2023-05-21T10:32:54.040Z,15.40
2023-05-21T10:33:54.735Z,16.40
2023-05-21T10:34:54.027Z,16.50
2023-05-21T10:35:53.945Z,16.60
2023-05-21T10:36:53.859Z,17.60
2023-05-21T10:37:53.841Z,17.60
2023-05-21T10:38:53.845Z,17.30
2023-05-21T10:39:53.853Z,16.10
2023-05-21T10:40:53.845Z,15.70
2023-05-21T10:41:54.425Z,17.10
2023-05-21T10:42:53.797Z,15.30
2023-05-21T10:43:53.854Z,16.40
2023-05-21T10:44:53.822Z,16.40
2023-05-21T10:45:53.810Z,15.80
2023-05-21T10:46:53.758Z,15.20
2023-05-21T10:47:54.490Z,16.70
2023-05-21T10:48:53.784Z,16.60
2023-05-21T10:49:53.775Z,16.00
2023-05-21T10:50:53.791Z,16.80
2023-05-21T10:51:53.698Z,15.50
2023-05-21T10:52:53.698Z,18.80
2023-05-21T10:53:53.772Z,16.30
2023-05-21T10:54:53.719Z,17.90
2023-05-21T10:55:53.668Z,17.50
2023-05-21T10:56:53.690Z,17.40
2023-05-21T10:57:53.674Z,16.90
2023-05-21T10:58:53.715Z,17.30
2023-05-21T10:59:53.651Z,16.10
2023-05-21T11:00:53.698Z,16.20
2023-05-21T11:01:53.617Z,17.10
2023-05-21T11:02:53.653Z,17.10
2023-05-21T11:03:53.689Z,16.50
2023-05-21T11:04:53.603Z,18.10
2023-05-21T11:05:53.642Z,16.20
2023-05-21T11:06:53.615Z,15.60
2023-05-21T11:07:53.604Z,17.00
2023-05-21T11:08:55.351Z,17.20
2023-05-21T11:09:53.544Z,16.90
2023-05-21T11:10:53.579Z,17.80
2023-05-21T11:11:53.515Z,17.80
2023-05-21T11:12:53.538Z,18.60
2023-05-21T11:13:53.546Z,17.10
2023-05-21T11:14:53.502Z,16.90
2023-05-21T11:15:53.489Z,16.70
2023-05-21T11:16:53.535Z,17.50
2023-05-21T11:17:53.544Z,16.10
2023-05-21T11:18:53.519Z,17.80
2023-05-21T11:19:53.440Z,16.60
2023-05-21T11:20:53.435Z,16.90
2023-05-21T11:21:53.459Z,17.20
2023-05-21T11:22:53.422Z,17.10
2023-05-21T11:23:53.468Z,16.80
2023-05-21T11:24:53.403Z,17.40
2023-05-21T11:25:53.393Z,17.30
2023-05-21T11:26:53.522Z,17.90
2023-05-21T11:27:53.381Z,17.20
2023-05-21T11:28:53.407Z,17.70
2023-05-21T11:29:53.387Z,18.10
2023-05-21T11:30:53.409Z,17.10
2023-05-21T11:31:53.369Z,18.40
2023-05-21T11:32:53.431Z,18.60
2023-05-21T11:33:53.308Z,18.00
2023-05-21T11:34:53.332Z,17.00
2023-05-21T11:35:53.312Z,17.50
2023-05-21T11:36:53.276Z,17.40
2023-05-21T11:37:53.268Z,17.80
2023-05-21T11:38:53.278Z,17.40
2023-05-21T11:39:53.281Z,18.10
2023-05-21T11:40:53.278Z,17.40
2023-05-21T11:41:53.245Z,17.70
2023-05-21T11:42:53.229Z,18.20
2023-05-21T11:43:53.228Z,18.70
2023-05-21T11:44:53.259Z,18.70
2023-05-21T11:45:53.389Z,18.00
2023-05-21T11:46:53.295Z,18.70
2023-05-21T11:47:53.216Z,18.20
2023-05-21T11:48:53.196Z,17.80
2023-05-21T11:49:53.205Z,17.90
2023-05-21T11:50:53.147Z,19.00
2023-05-21T11:51:53.133Z,19.40
2023-05-21T11:52:53.140Z,18.70
2023-05-21T11:53:53.119Z,18.90
2023-05-21T11:54:53.134Z,19.80
2023-05-21T11:55:53.145Z,19.50
2023-05-21T11:56:53.089Z,17.80
2023-05-21T11:57:53.094Z,18.60
2023-05-21T11:58:53.095Z,18.60
2023-05-21T11:59:53.112Z,18.50
2023-05-21T12:00:53.110Z,17.90
2023-05-21T12:01:53.020Z,19.80
2023-05-21T12:02:53.353Z,19.50
2023-05-21T12:03:53.070Z,18.90
2023-05-21T12:04:53.019Z,19.60
2023-05-21T12:05:53.082Z,17.00
2023-05-21T12:06:52.975Z,19.70
2023-05-21T12:07:52.987Z,18.60
2023-05-21T12:08:53.034Z,17.00
2023-05-21T12:09:52.988Z,18.90
2023-05-21T12:10:53.012Z,20.10
2023-05-21T12:11:52.934Z,17.90
2023-05-21T12:12:56.985Z,19.50
2023-05-21T12:13:52.998Z,19.40
2023-05-21T12:14:52.892Z,19.50
2023-05-21T12:15:52.892Z,18.10
2023-05-21T12:16:52.954Z,19.90
2023-05-21T12:17:53.327Z,18.40
2023-05-21T12:18:52.957Z,18.50
2023-05-21T12:19:52.856Z,18.10
2023-05-21T12:20:52.850Z,18.50
2023-05-21T12:21:52.841Z,18.90
2023-05-21T12:22:52.838Z,18.90
2023-05-21T12:23:52.845Z,18.30
2023-05-21T12:24:52.822Z,18.50
2023-05-21T12:25:52.836Z,18.30
2023-05-21T12:26:52.806Z,17.50
2023-05-21T12:27:52.981Z,18.70
2023-05-21T12:28:52.776Z,18.10
2023-05-21T12:29:52.756Z,19.70
2023-05-21T12:30:52.749Z,19.40
2023-05-21T12:31:52.899Z,19.30
2023-05-21T12:32:52.842Z,19.80
2023-05-21T12:33:52.742Z,19.30
2023-05-21T12:34:52.725Z,19.10
2023-05-21T12:35:52.799Z,20.10
2023-05-21T12:36:52.701Z,21.70
2023-05-21T12:37:52.802Z,20.10
2023-05-21T12:38:52.710Z,21.90
2023-05-21T12:39:52.650Z,19.60
2023-05-21T12:40:52.633Z,20.10
2023-05-21T12:41:52.629Z,19.20
2023-05-21T12:42:52.688Z,19.80
2023-05-21T12:43:52.658Z,20.30
2023-05-21T12:44:52.630Z,17.40
2023-05-21T12:45:52.685Z,19.80
2023-05-21T12:47:53.933Z,19.70
2023-05-21T12:48:54.545Z,20.00
2023-05-21T12:49:55.315Z,21.40
2023-05-21T12:50:54.537Z,20.90
2023-05-21T12:51:54.556Z,20.60
2023-05-21T12:52:54.559Z,22.20